sensor_id;sensor_type;location;lat;lon;timestamp;P1;durP1;ratioP1;P2;durP2;ratioP2
59336;SDS011;45115;52.002;4.686;2024-01-07T00:01:12;15.10;;;7.05;;
59336;SDS011;45115;52.002;4.686;2024-01-07T00:03:55;17.70;;;8.02;;
59336;SDS011;45115;52.002;4.686;2024-01-07T00:06:21;18.75;;;8.80;;
59336;SDS011;45115;52.002;4.686;2024-01-07T00:08:48;16.65;;;7.72;;
59336;SDS011;45115;52.002;4.686;2024-01-07T00:11:14;17.58;;;8.32;;
59336;SDS011;45115;52.002;4.686;2024-01-07T00:13:41;14.40;;;7.63;;
59336;SDS011;45115;52.002;4.686;2024-01-07T00:16:08;16.05;;;8.25;;
59336;SDS011;45115;52.002;4.686;2024-01-07T00:18:34;16.75;;;8.77;;
59336;SDS011;45115;52.002;4.686;2024-01-07T00:21:03;18.95;;;8.95;;
59336;SDS011;45115;52.002;4.686;2024-01-07T00:23:30;15.02;;;7.57;;
59336;SDS011;45115;52.002;4.686;2024-01-07T00:25:56;15.93;;;8.50;;
59336;SDS011;45115;52.002;4.686;2024-01-07T00:28:23;18.00;;;8.93;;
59336;SDS011;45115;52.002;4.686;2024-01-07T00:30:50;16.92;;;8.57;;
59336;SDS011;45115;52.002;4.686;2024-01-07T00:33:16;17.23;;;8.48;;
59336;SDS011;45115;52.002;4.686;2024-01-07T00:35:43;17.65;;;9.60;;
59336;SDS011;45115;52.002;4.686;2024-01-07T00:38:11;18.33;;;8.55;;
59336;SDS011;45115;52.002;4.686;2024-01-07T00:40:38;19.73;;;8.95;;
59336;SDS011;45115;52.002;4.686;2024-01-07T00:43:04;15.45;;;7.85;;
59336;SDS011;45115;52.002;4.686;2024-01-07T00:45:31;16.45;;;8.90;;
59336;SDS011;45115;52.002;4.686;2024-01-07T00:47:58;17.63;;;9.07;;
59336;SDS011;45115;52.002;4.686;2024-01-07T00:50:25;15.93;;;8.27;;
59336;SDS011;45115;52.002;4.686;2024-01-07T00:52:51;16.25;;;8.68;;
59336;SDS011;45115;52.002;4.686;2024-01-07T00:55:19;19.17;;;8.73;;
59336;SDS011;45115;52.002;4.686;2024-01-07T00:57:47;16.73;;;8.05;;
59336;SDS011;45115;52.002;4.686;2024-01-07T01:00:14;16.70;;;8.48;;
59336;SDS011;45115;52.002;4.686;2024-01-07T01:02:41;18.10;;;8.85;;
59336;SDS011;45115;52.002;4.686;2024-01-07T01:05:08;15.50;;;7.93;;
59336;SDS011;45115;52.002;4.686;2024-01-07T01:07:35;17.80;;;9.05;;
59336;SDS011;45115;52.002;4.686;2024-01-07T01:10:01;15.65;;;8.10;;
59336;SDS011;45115;52.002;4.686;2024-01-07T01:12:31;16.38;;;8.52;;
59336;SDS011;45115;52.002;4.686;2024-01-07T01:14:57;14.75;;;8.10;;
59336;SDS011;45115;52.002;4.686;2024-01-07T01:17:24;16.52;;;8.35;;
59336;SDS011;45115;52.002;4.686;2024-01-07T01:19:51;16.70;;;7.75;;
59336;SDS011;45115;52.002;4.686;2024-01-07T01:22:17;17.48;;;8.27;;
59336;SDS011;45115;52.002;4.686;2024-01-07T01:24:44;18.08;;;9.77;;
59336;SDS011;45115;52.002;4.686;2024-01-07T01:27:11;16.98;;;8.50;;
59336;SDS011;45115;52.002;4.686;2024-01-07T01:29:39;15.68;;;7.43;;
59336;SDS011;45115;52.002;4.686;2024-01-07T01:32:06;17.77;;;8.32;;
59336;SDS011;45115;52.002;4.686;2024-01-07T01:34:33;15.10;;;7.93;;
59336;SDS011;45115;52.002;4.686;2024-01-07T01:36:59;19.92;;;8.23;;
59336;SDS011;45115;52.002;4.686;2024-01-07T01:39:26;16.17;;;7.85;;
59336;SDS011;45115;52.002;4.686;2024-01-07T01:41:53;18.38;;;9.25;;
59336;SDS011;45115;52.002;4.686;2024-01-07T01:44:19;17.33;;;8.65;;
59336;SDS011;45115;52.002;4.686;2024-01-07T01:46:47;17.75;;;9.18;;
59336;SDS011;45115;52.002;4.686;2024-01-07T01:49:14;15.07;;;8.13;;
59336;SDS011;45115;52.002;4.686;2024-01-07T01:51:41;18.85;;;8.90;;
59336;SDS011;45115;52.002;4.686;2024-01-07T01:54:08;20.25;;;9.20;;
59336;SDS011;45115;52.002;4.686;2024-01-07T01:56:35;21.08;;;8.70;;
59336;SDS011;45115;52.002;4.686;2024-01-07T01:59:01;18.70;;;9.23;;
59336;SDS011;45115;52.002;4.686;2024-01-07T02:01:28;19.30;;;9.23;;
59336;SDS011;45115;52.002;4.686;2024-01-07T02:03:59;20.92;;;11.18;;
59336;SDS011;45115;52.002;4.686;2024-01-07T02:06:26;19.57;;;8.90;;
59336;SDS011;45115;52.002;4.686;2024-01-07T02:08:53;19.27;;;9.38;;
59336;SDS011;45115;52.002;4.686;2024-01-07T02:11:21;19.05;;;9.45;;
59336;SDS011;45115;52.002;4.686;2024-01-07T02:13:48;18.17;;;8.95;;
59336;SDS011;45115;52.002;4.686;2024-01-07T02:16:15;17.08;;;8.77;;
59336;SDS011;45115;52.002;4.686;2024-01-07T02:18:43;17.50;;;8.32;;
59336;SDS011;45115;52.002;4.686;2024-01-07T02:21:12;18.25;;;8.52;;
59336;SDS011;45115;52.002;4.686;2024-01-07T02:23:40;17.70;;;9.13;;
59336;SDS011;45115;52.002;4.686;2024-01-07T02:26:08;18.70;;;8.32;;
59336;SDS011;45115;52.002;4.686;2024-01-07T02:28:35;18.05;;;8.50;;
59336;SDS011;45115;52.002;4.686;2024-01-07T02:31:02;15.70;;;7.65;;
59336;SDS011;45115;52.002;4.686;2024-01-07T02:33:28;18.40;;;9.25;;
59336;SDS011;45115;52.002;4.686;2024-01-07T02:35:56;16.85;;;8.48;;
59336;SDS011;45115;52.002;4.686;2024-01-07T02:38:23;17.05;;;8.48;;
59336;SDS011;45115;52.002;4.686;2024-01-07T02:40:49;17.13;;;8.60;;
59336;SDS011;45115;52.002;4.686;2024-01-07T02:43:17;16.90;;;7.65;;
59336;SDS011;45115;52.002;4.686;2024-01-07T02:45:44;19.48;;;9.00;;
59336;SDS011;45115;52.002;4.686;2024-01-07T02:48:10;19.17;;;9.02;;
59336;SDS011;45115;52.002;4.686;2024-01-07T02:50:37;18.30;;;8.98;;
59336;SDS011;45115;52.002;4.686;2024-01-07T02:53:04;18.05;;;8.60;;
59336;SDS011;45115;52.002;4.686;2024-01-07T02:55:30;16.20;;;7.88;;
59336;SDS011;45115;52.002;4.686;2024-01-07T02:57:57;18.38;;;9.27;;
59336;SDS011;45115;52.002;4.686;2024-01-07T03:00:28;17.80;;;9.40;;
59336;SDS011;45115;52.002;4.686;2024-01-07T03:02:55;21.60;;;9.68;;
59336;SDS011;45115;52.002;4.686;2024-01-07T03:05:21;19.88;;;9.10;;
59336;SDS011;45115;52.002;4.686;2024-01-07T03:07:48;20.00;;;9.23;;
59336;SDS011;45115;52.002;4.686;2024-01-07T03:10:14;18.90;;;8.43;;
59336;SDS011;45115;52.002;4.686;2024-01-07T03:12:41;18.77;;;8.95;;
59336;SDS011;45115;52.002;4.686;2024-01-07T03:15:08;20.00;;;9.50;;
59336;SDS011;45115;52.002;4.686;2024-01-07T03:17:36;19.90;;;9.32;;
59336;SDS011;45115;52.002;4.686;2024-01-07T03:20:03;17.55;;;8.40;;
59336;SDS011;45115;52.002;4.686;2024-01-07T03:22:29;20.52;;;9.52;;
59336;SDS011;45115;52.002;4.686;2024-01-07T03:24:56;17.67;;;8.25;;
59336;SDS011;45115;52.002;4.686;2024-01-07T03:27:23;21.92;;;12.18;;
59336;SDS011;45115;52.002;4.686;2024-01-07T03:29:49;20.85;;;9.80;;
59336;SDS011;45115;52.002;4.686;2024-01-07T03:32:16;21.85;;;10.30;;
59336;SDS011;45115;52.002;4.686;2024-01-07T03:34:44;20.70;;;10.38;;
59336;SDS011;45115;52.002;4.686;2024-01-07T03:37:11;22.40;;;10.57;;
59336;SDS011;45115;52.002;4.686;2024-01-07T03:39:41;23.00;;;9.48;;
59336;SDS011;45115;52.002;4.686;2024-01-07T03:42:07;26.25;;;11.05;;
59336;SDS011;45115;52.002;4.686;2024-01-07T03:44:36;24.60;;;12.07;;
59336;SDS011;45115;52.002;4.686;2024-01-07T03:47:03;23.60;;;10.45;;
59336;SDS011;45115;52.002;4.686;2024-01-07T03:49:30;27.50;;;12.15;;
59336;SDS011;45115;52.002;4.686;2024-01-07T03:51:58;27.08;;;13.38;;
59336;SDS011;45115;52.002;4.686;2024-01-07T03:54:25;25.48;;;12.65;;
59336;SDS011;45115;52.002;4.686;2024-01-07T03:56:51;25.38;;;10.90;;
59336;SDS011;45115;52.002;4.686;2024-01-07T03:59:18;24.73;;;11.65;;
59336;SDS011;45115;52.002;4.686;2024-01-07T04:01:44;24.10;;;12.02;;
59336;SDS011;45115;52.002;4.686;2024-01-07T04:04:11;25.55;;;12.77;;
59336;SDS011;45115;52.002;4.686;2024-01-07T04:06:39;27.08;;;12.25;;
59336;SDS011;45115;52.002;4.686;2024-01-07T04:09:07;26.58;;;11.52;;
59336;SDS011;45115;52.002;4.686;2024-01-07T04:11:38;22.17;;;10.57;;
59336;SDS011;45115;52.002;4.686;2024-01-07T04:16:32;22.58;;;10.73;;
59336;SDS011;45115;52.002;4.686;2024-01-07T04:18:58;24.25;;;12.20;;
59336;SDS011;45115;52.002;4.686;2024-01-07T04:21:25;24.27;;;11.55;;
59336;SDS011;45115;52.002;4.686;2024-01-07T04:23:51;22.10;;;10.65;;
59336;SDS011;45115;52.002;4.686;2024-01-07T04:26:19;22.58;;;10.38;;
59336;SDS011;45115;52.002;4.686;2024-01-07T04:28:46;26.13;;;11.52;;
59336;SDS011;45115;52.002;4.686;2024-01-07T04:31:13;20.13;;;9.95;;
59336;SDS011;45115;52.002;4.686;2024-01-07T04:33:40;22.02;;;10.52;;
59336;SDS011;45115;52.002;4.686;2024-01-07T04:36:06;20.58;;;9.95;;
59336;SDS011;45115;52.002;4.686;2024-01-07T04:38:33;22.40;;;10.02;;
59336;SDS011;45115;52.002;4.686;2024-01-07T04:41:00;20.75;;;10.82;;
59336;SDS011;45115;52.002;4.686;2024-01-07T04:43:30;23.30;;;10.52;;
59336;SDS011;45115;52.002;4.686;2024-01-07T04:45:57;19.33;;;9.75;;
59336;SDS011;45115;52.002;4.686;2024-01-07T04:48:23;20.13;;;9.68;;
59336;SDS011;45115;52.002;4.686;2024-01-07T04:50:50;17.65;;;9.18;;
59336;SDS011;45115;52.002;4.686;2024-01-07T04:53:16;21.33;;;9.32;;
59336;SDS011;45115;52.002;4.686;2024-01-07T04:55:43;22.63;;;10.20;;
59336;SDS011;45115;52.002;4.686;2024-01-07T04:58:10;18.88;;;8.85;;
59336;SDS011;45115;52.002;4.686;2024-01-07T05:00:38;21.25;;;9.73;;
59336;SDS011;45115;52.002;4.686;2024-01-07T05:03:04;22.88;;;10.35;;
59336;SDS011;45115;52.002;4.686;2024-01-07T05:05:31;23.65;;;10.48;;
59336;SDS011;45115;52.002;4.686;2024-01-07T05:07:58;24.15;;;10.70;;
59336;SDS011;45115;52.002;4.686;2024-01-07T05:10:25;20.33;;;10.25;;
59336;SDS011;45115;52.002;4.686;2024-01-07T05:12:52;20.25;;;10.65;;
59336;SDS011;45115;52.002;4.686;2024-01-07T05:15:19;24.27;;;10.32;;
59336;SDS011;45115;52.002;4.686;2024-01-07T05:17:47;23.67;;;11.35;;
59336;SDS011;45115;52.002;4.686;2024-01-07T05:20:14;22.75;;;10.88;;
59336;SDS011;45115;52.002;4.686;2024-01-07T05:22:41;23.50;;;11.98;;
59336;SDS011;45115;52.002;4.686;2024-01-07T05:25:08;24.23;;;10.23;;
59336;SDS011;45115;52.002;4.686;2024-01-07T05:27:35;23.25;;;11.50;;
59336;SDS011;45115;52.002;4.686;2024-01-07T05:30:02;26.67;;;12.02;;
59336;SDS011;45115;52.002;4.686;2024-01-07T05:32:28;21.77;;;11.27;;
59336;SDS011;45115;52.002;4.686;2024-01-07T05:34:56;21.65;;;11.55;;
59336;SDS011;45115;52.002;4.686;2024-01-07T05:37:23;22.17;;;10.73;;
59336;SDS011;45115;52.002;4.686;2024-01-07T05:39:50;23.45;;;11.38;;
59336;SDS011;45115;52.002;4.686;2024-01-07T05:42:16;23.63;;;11.50;;
59336;SDS011;45115;52.002;4.686;2024-01-07T05:44:44;24.35;;;11.73;;
59336;SDS011;45115;52.002;4.686;2024-01-07T05:47:10;24.65;;;10.63;;
59336;SDS011;45115;52.002;4.686;2024-01-07T05:49:37;28.95;;;12.63;;
59336;SDS011;45115;52.002;4.686;2024-01-07T05:52:05;25.17;;;12.43;;
59336;SDS011;45115;52.002;4.686;2024-01-07T05:54:32;23.17;;;11.93;;
59336;SDS011;45115;52.002;4.686;2024-01-07T05:56:58;25.33;;;12.77;;
59336;SDS011;45115;52.002;4.686;2024-01-07T05:59:25;24.20;;;11.20;;
59336;SDS011;45115;52.002;4.686;2024-01-07T06:01:56;23.88;;;10.90;;
59336;SDS011;45115;52.002;4.686;2024-01-07T06:04:24;22.48;;;11.85;;
59336;SDS011;45115;52.002;4.686;2024-01-07T06:06:51;23.25;;;10.77;;
59336;SDS011;45115;52.002;4.686;2024-01-07T06:09:19;24.10;;;10.77;;
59336;SDS011;45115;52.002;4.686;2024-01-07T06:11:45;23.33;;;11.38;;
59336;SDS011;45115;52.002;4.686;2024-01-07T06:14:12;21.67;;;10.52;;
59336;SDS011;45115;52.002;4.686;2024-01-07T06:16:39;22.70;;;11.10;;
59336;SDS011;45115;52.002;4.686;2024-01-07T06:19:05;23.90;;;10.90;;
59336;SDS011;45115;52.002;4.686;2024-01-07T06:21:32;20.35;;;10.68;;
59336;SDS011;45115;52.002;4.686;2024-01-07T06:23:59;25.92;;;11.30;;
59336;SDS011;45115;52.002;4.686;2024-01-07T06:26:27;20.63;;;11.25;;
59336;SDS011;45115;52.002;4.686;2024-01-07T06:28:53;25.27;;;11.70;;
59336;SDS011;45115;52.002;4.686;2024-01-07T06:31:20;23.80;;;10.77;;
59336;SDS011;45115;52.002;4.686;2024-01-07T06:33:47;25.63;;;12.25;;
59336;SDS011;45115;52.002;4.686;2024-01-07T06:36:13;29.17;;;12.13;;
59336;SDS011;45115;52.002;4.686;2024-01-07T06:38:40;27.15;;;12.52;;
59336;SDS011;45115;52.002;4.686;2024-01-07T06:41:06;25.95;;;13.27;;
59336;SDS011;45115;52.002;4.686;2024-01-07T06:43:34;24.40;;;11.82;;
59336;SDS011;45115;52.002;4.686;2024-01-07T06:46:01;24.65;;;12.23;;
59336;SDS011;45115;52.002;4.686;2024-01-07T06:48:28;25.73;;;12.35;;
59336;SDS011;45115;52.002;4.686;2024-01-07T06:50:57;24.15;;;11.55;;
59336;SDS011;45115;52.002;4.686;2024-01-07T06:53:24;21.95;;;10.63;;
59336;SDS011;45115;52.002;4.686;2024-01-07T06:55:51;25.17;;;11.82;;
59336;SDS011;45115;52.002;4.686;2024-01-07T06:58:17;24.05;;;11.05;;
59336;SDS011;45115;52.002;4.686;2024-01-07T07:00:45;24.30;;;12.23;;
59336;SDS011;45115;52.002;4.686;2024-01-07T07:03:12;23.70;;;10.70;;
59336;SDS011;45115;52.002;4.686;2024-01-07T07:05:39;20.70;;;9.60;;
59336;SDS011;45115;52.002;4.686;2024-01-07T07:08:05;24.10;;;10.38;;
59336;SDS011;45115;52.002;4.686;2024-01-07T07:10:32;21.45;;;11.05;;
59336;SDS011;45115;52.002;4.686;2024-01-07T07:12:59;24.27;;;12.25;;
59336;SDS011;45115;52.002;4.686;2024-01-07T07:15:26;21.80;;;10.65;;
59336;SDS011;45115;52.002;4.686;2024-01-07T07:17:55;23.13;;;12.25;;
59336;SDS011;45115;52.002;4.686;2024-01-07T07:20:22;18.65;;;9.35;;
59336;SDS011;45115;52.002;4.686;2024-01-07T07:22:48;22.10;;;11.23;;
59336;SDS011;45115;52.002;4.686;2024-01-07T07:25:15;25.50;;;11.13;;
59336;SDS011;45115;52.002;4.686;2024-01-07T07:27:42;23.27;;;11.88;;
59336;SDS011;45115;52.002;4.686;2024-01-07T07:30:09;20.60;;;10.20;;
59336;SDS011;45115;52.002;4.686;2024-01-07T07:32:38;19.48;;;8.98;;
59336;SDS011;45115;52.002;4.686;2024-01-07T07:35:07;18.35;;;9.45;;
59336;SDS011;45115;52.002;4.686;2024-01-07T07:37:34;20.08;;;11.30;;
59336;SDS011;45115;52.002;4.686;2024-01-07T07:40:00;21.25;;;10.70;;
59336;SDS011;45115;52.002;4.686;2024-01-07T07:42:27;20.65;;;10.25;;
59336;SDS011;45115;52.002;4.686;2024-01-07T07:44:54;20.73;;;10.45;;
59336;SDS011;45115;52.002;4.686;2024-01-07T07:47:21;21.05;;;10.15;;
59336;SDS011;45115;52.002;4.686;2024-01-07T07:49:47;21.63;;;11.38;;
59336;SDS011;45115;52.002;4.686;2024-01-07T07:52:16;19.98;;;9.32;;
59336;SDS011;45115;52.002;4.686;2024-01-07T07:54:47;24.38;;;10.43;;
59336;SDS011;45115;52.002;4.686;2024-01-07T07:57:14;21.98;;;10.85;;
59336;SDS011;45115;52.002;4.686;2024-01-07T07:59:41;23.95;;;10.45;;
59336;SDS011;45115;52.002;4.686;2024-01-07T08:02:08;21.80;;;9.65;;
59336;SDS011;45115;52.002;4.686;2024-01-07T08:04:34;21.50;;;9.70;;
59336;SDS011;45115;52.002;4.686;2024-01-07T08:07:01;18.13;;;9.30;;
59336;SDS011;45115;52.002;4.686;2024-01-07T08:09:29;19.63;;;9.68;;
59336;SDS011;45115;52.002;4.686;2024-01-07T08:11:58;21.42;;;10.63;;
59336;SDS011;45115;52.002;4.686;2024-01-07T08:14:25;21.33;;;10.05;;
59336;SDS011;45115;52.002;4.686;2024-01-07T08:16:52;22.98;;;10.02;;
59336;SDS011;45115;52.002;4.686;2024-01-07T08:19:18;21.35;;;9.32;;
59336;SDS011;45115;52.002;4.686;2024-01-07T08:21:45;20.98;;;9.57;;
59336;SDS011;45115;52.002;4.686;2024-01-07T08:24:12;20.13;;;9.32;;
59336;SDS011;45115;52.002;4.686;2024-01-07T08:26:40;18.00;;;9.05;;
59336;SDS011;45115;52.002;4.686;2024-01-07T08:29:06;23.08;;;9.82;;
59336;SDS011;45115;52.002;4.686;2024-01-07T08:31:40;17.05;;;8.57;;
59336;SDS011;45115;52.002;4.686;2024-01-07T08:34:18;21.98;;;9.35;;
59336;SDS011;45115;52.002;4.686;2024-01-07T08:36:45;20.75;;;9.63;;
59336;SDS011;45115;52.002;4.686;2024-01-07T08:39:14;19.73;;;9.77;;
59336;SDS011;45115;52.002;4.686;2024-01-07T08:41:42;20.42;;;9.07;;
59336;SDS011;45115;52.002;4.686;2024-01-07T08:44:10;22.55;;;9.13;;
59336;SDS011;45115;52.002;4.686;2024-01-07T08:46:41;23.00;;;9.90;;
59336;SDS011;45115;52.002;4.686;2024-01-07T08:49:08;20.42;;;9.80;;
59336;SDS011;45115;52.002;4.686;2024-01-07T08:51:34;18.42;;;9.82;;
59336;SDS011;45115;52.002;4.686;2024-01-07T08:54:01;18.67;;;8.07;;
59336;SDS011;45115;52.002;4.686;2024-01-07T08:56:27;19.27;;;9.55;;
59336;SDS011;45115;52.002;4.686;2024-01-07T08:58:56;20.85;;;10.82;;
59336;SDS011;45115;52.002;4.686;2024-01-07T09:01:24;21.50;;;10.18;;
59336;SDS011;45115;52.002;4.686;2024-01-07T09:03:50;21.05;;;10.65;;
59336;SDS011;45115;52.002;4.686;2024-01-07T09:06:17;22.15;;;10.73;;
59336;SDS011;45115;52.002;4.686;2024-01-07T09:08:44;22.05;;;10.98;;
59336;SDS011;45115;52.002;4.686;2024-01-07T09:11:11;18.67;;;9.88;;
59336;SDS011;45115;52.002;4.686;2024-01-07T09:13:38;21.80;;;9.55;;
59336;SDS011;45115;52.002;4.686;2024-01-07T09:16:09;19.88;;;10.32;;
59336;SDS011;45115;52.002;4.686;2024-01-07T09:18:36;22.00;;;10.23;;
59336;SDS011;45115;52.002;4.686;2024-01-07T09:21:03;19.83;;;10.00;;
59336;SDS011;45115;52.002;4.686;2024-01-07T09:23:34;18.27;;;8.27;;
59336;SDS011;45115;52.002;4.686;2024-01-07T09:26:11;20.02;;;9.07;;
59336;SDS011;45115;52.002;4.686;2024-01-07T09:28:41;21.38;;;9.60;;
59336;SDS011;45115;52.002;4.686;2024-01-07T09:31:15;19.55;;;9.40;;
59336;SDS011;45115;52.002;4.686;2024-01-07T09:36:41;22.10;;;8.98;;
59336;SDS011;45115;52.002;4.686;2024-01-07T09:42:14;20.98;;;9.60;;
59336;SDS011;45115;52.002;4.686;2024-01-07T09:44:42;18.90;;;9.00;;
59336;SDS011;45115;52.002;4.686;2024-01-07T09:47:11;17.02;;;9.00;;
59336;SDS011;45115;52.002;4.686;2024-01-07T09:49:39;20.33;;;10.07;;
59336;SDS011;45115;52.002;4.686;2024-01-07T09:52:12;20.63;;;9.00;;
59336;SDS011;45115;52.002;4.686;2024-01-07T09:54:39;19.33;;;9.55;;
59336;SDS011;45115;52.002;4.686;2024-01-07T09:57:09;19.95;;;9.82;;
59336;SDS011;45115;52.002;4.686;2024-01-07T09:59:36;20.30;;;8.90;;
59336;SDS011;45115;52.002;4.686;2024-01-07T10:02:04;19.67;;;9.80;;
59336;SDS011;45115;52.002;4.686;2024-01-07T10:04:32;17.23;;;9.85;;
59336;SDS011;45115;52.002;4.686;2024-01-07T10:06:59;15.57;;;7.78;;
59336;SDS011;45115;52.002;4.686;2024-01-07T10:09:28;20.58;;;9.68;;
59336;SDS011;45115;52.002;4.686;2024-01-07T10:11:59;15.23;;;8.27;;
59336;SDS011;45115;52.002;4.686;2024-01-07T10:14:27;17.33;;;8.77;;
59336;SDS011;45115;52.002;4.686;2024-01-07T10:16:55;15.50;;;7.57;;
59336;SDS011;45115;52.002;4.686;2024-01-07T10:19:24;16.77;;;7.78;;
59336;SDS011;45115;52.002;4.686;2024-01-07T10:22:02;18.73;;;8.40;;
59336;SDS011;45115;52.002;4.686;2024-01-07T10:24:31;15.20;;;8.20;;
59336;SDS011;45115;52.002;4.686;2024-01-07T10:27:03;19.02;;;8.23;;
59336;SDS011;45115;52.002;4.686;2024-01-07T10:29:30;17.45;;;8.02;;
59336;SDS011;45115;52.002;4.686;2024-01-07T10:31:59;15.65;;;7.95;;
59336;SDS011;45115;52.002;4.686;2024-01-07T10:34:31;17.42;;;8.25;;
59336;SDS011;45115;52.002;4.686;2024-01-07T10:36:59;14.30;;;7.03;;
59336;SDS011;45115;52.002;4.686;2024-01-07T10:39:27;17.58;;;7.68;;
59336;SDS011;45115;52.002;4.686;2024-01-07T10:41:55;15.13;;;6.55;;
59336;SDS011;45115;52.002;4.686;2024-01-07T10:44:24;15.75;;;6.97;;
59336;SDS011;45115;52.002;4.686;2024-01-07T10:46:53;15.82;;;7.57;;
59336;SDS011;45115;52.002;4.686;2024-01-07T10:49:22;13.75;;;7.32;;
59336;SDS011;45115;52.002;4.686;2024-01-07T10:51:51;15.52;;;6.35;;
59336;SDS011;45115;52.002;4.686;2024-01-07T10:54:29;13.82;;;6.30;;
59336;SDS011;45115;52.002;4.686;2024-01-07T10:57:03;16.73;;;6.93;;
59336;SDS011;45115;52.002;4.686;2024-01-07T10:59:35;13.85;;;6.20;;
59336;SDS011;45115;52.002;4.686;2024-01-07T11:02:03;14.95;;;7.25;;
59336;SDS011;45115;52.002;4.686;2024-01-07T11:04:34;10.15;;;5.60;;
59336;SDS011;45115;52.002;4.686;2024-01-07T11:08:18;12.68;;;5.55;;
59336;SDS011;45115;52.002;4.686;2024-01-07T11:10:53;13.77;;;5.13;;
59336;SDS011;45115;52.002;4.686;2024-01-07T11:13:34;12.57;;;5.53;;
59336;SDS011;45115;52.002;4.686;2024-01-07T11:16:03;11.88;;;5.22;;
59336;SDS011;45115;52.002;4.686;2024-01-07T11:18:37;10.20;;;5.20;;
59336;SDS011;45115;52.002;4.686;2024-01-07T11:21:05;8.68;;;5.03;;
59336;SDS011;45115;52.002;4.686;2024-01-07T11:23:32;12.65;;;5.60;;
59336;SDS011;45115;52.002;4.686;2024-01-07T11:26:04;9.73;;;5.03;;
59336;SDS011;45115;52.002;4.686;2024-01-07T11:28:42;11.02;;;5.25;;
59336;SDS011;45115;52.002;4.686;2024-01-07T11:31:09;12.15;;;5.45;;
59336;SDS011;45115;52.002;4.686;2024-01-07T11:33:36;12.20;;;5.45;;
59336;SDS011;45115;52.002;4.686;2024-01-07T11:36:04;11.95;;;5.30;;
59336;SDS011;45115;52.002;4.686;2024-01-07T11:38:31;12.63;;;5.00;;
59336;SDS011;45115;52.002;4.686;2024-01-07T11:41:00;10.35;;;4.93;;
59336;SDS011;45115;52.002;4.686;2024-01-07T11:43:32;11.98;;;5.50;;
59336;SDS011;45115;52.002;4.686;2024-01-07T11:45:59;12.15;;;4.93;;
59336;SDS011;45115;52.002;4.686;2024-01-07T11:48:26;10.32;;;5.22;;
59336;SDS011;45115;52.002;4.686;2024-01-07T11:50:53;9.93;;;5.13;;
59336;SDS011;45115;52.002;4.686;2024-01-07T11:53:20;8.48;;;4.20;;
59336;SDS011;45115;52.002;4.686;2024-01-07T11:55:57;10.05;;;4.65;;
59336;SDS011;45115;52.002;4.686;2024-01-07T11:58:25;8.27;;;4.28;;
59336;SDS011;45115;52.002;4.686;2024-01-07T12:00:52;9.23;;;4.63;;
59336;SDS011;45115;52.002;4.686;2024-01-07T12:03:18;8.45;;;4.28;;
59336;SDS011;45115;52.002;4.686;2024-01-07T12:05:45;5.80;;;3.58;;
59336;SDS011;45115;52.002;4.686;2024-01-07T12:08:12;10.43;;;4.53;;
59336;SDS011;45115;52.002;4.686;2024-01-07T12:10:41;10.15;;;4.45;;
59336;SDS011;45115;52.002;4.686;2024-01-07T12:13:07;8.88;;;4.93;;
59336;SDS011;45115;52.002;4.686;2024-01-07T12:15:38;7.50;;;4.30;;
59336;SDS011;45115;52.002;4.686;2024-01-07T12:18:05;8.15;;;3.88;;
59336;SDS011;45115;52.002;4.686;2024-01-07T12:20:32;9.45;;;4.30;;
59336;SDS011;45115;52.002;4.686;2024-01-07T12:23:04;9.02;;;3.67;;
59336;SDS011;45115;52.002;4.686;2024-01-07T12:25:32;9.43;;;4.78;;
59336;SDS011;45115;52.002;4.686;2024-01-07T12:27:59;10.13;;;4.70;;
59336;SDS011;45115;52.002;4.686;2024-01-07T12:30:27;9.98;;;4.40;;
59336;SDS011;45115;52.002;4.686;2024-01-07T12:32:57;8.88;;;4.93;;
59336;SDS011;45115;52.002;4.686;2024-01-07T12:35:25;9.50;;;4.63;;
59336;SDS011;45115;52.002;4.686;2024-01-07T12:37:52;10.95;;;4.15;;
59336;SDS011;45115;52.002;4.686;2024-01-07T12:40:22;8.90;;;4.07;;
59336;SDS011;45115;52.002;4.686;2024-01-07T12:42:50;7.88;;;3.90;;
59336;SDS011;45115;52.002;4.686;2024-01-07T12:45:16;7.78;;;4.15;;
59336;SDS011;45115;52.002;4.686;2024-01-07T12:47:43;7.55;;;4.32;;
59336;SDS011;45115;52.002;4.686;2024-01-07T12:50:13;10.82;;;5.10;;
59336;SDS011;45115;52.002;4.686;2024-01-07T12:52:40;8.32;;;4.20;;
59336;SDS011;45115;52.002;4.686;2024-01-07T12:55:09;7.22;;;3.80;;
59336;SDS011;45115;52.002;4.686;2024-01-07T12:57:36;7.50;;;3.92;;
59336;SDS011;45115;52.002;4.686;2024-01-07T13:00:03;7.00;;;3.88;;
59336;SDS011;45115;52.002;4.686;2024-01-07T13:02:32;5.97;;;2.60;;
59336;SDS011;45115;52.002;4.686;2024-01-07T13:04:59;5.30;;;2.70;;
59336;SDS011;45115;52.002;4.686;2024-01-07T13:07:27;5.75;;;2.95;;
59336;SDS011;45115;52.002;4.686;2024-01-07T13:09:57;6.22;;;3.15;;
59336;SDS011;45115;52.002;4.686;2024-01-07T13:12:23;4.65;;;3.20;;
59336;SDS011;45115;52.002;4.686;2024-01-07T13:14:51;4.70;;;2.92;;
59336;SDS011;45115;52.002;4.686;2024-01-07T13:17:36;6.22;;;3.10;;
59336;SDS011;45115;52.002;4.686;2024-01-07T13:23:52;5.80;;;3.13;;
59336;SDS011;45115;52.002;4.686;2024-01-07T13:45:35;5.85;;;2.63;;
59336;SDS011;45115;52.002;4.686;2024-01-07T13:52:13;5.90;;;2.75;;
59336;SDS011;45115;52.002;4.686;2024-01-07T13:55:25;3.75;;;2.55;;
59336;SDS011;45115;52.002;4.686;2024-01-07T14:21:07;3.10;;;2.45;;
59336;SDS011;45115;52.002;4.686;2024-01-07T14:24:15;4.45;;;2.50;;
59336;SDS011;45115;52.002;4.686;2024-01-07T14:27:44;3.67;;;2.10;;
59336;SDS011;45115;52.002;4.686;2024-01-07T14:51:01;5.00;;;2.10;;
59336;SDS011;45115;52.002;4.686;2024-01-07T14:51:43;3.03;;;2.15;;
59336;SDS011;45115;52.002;4.686;2024-01-07T14:57:59;6.00;;;2.83;;
59336;SDS011;45115;52.002;4.686;2024-01-07T15:00:58;3.65;;;2.10;;
59336;SDS011;45115;52.002;4.686;2024-01-07T15:03:27;3.90;;;2.50;;
59336;SDS011;45115;52.002;4.686;2024-01-07T15:05:55;2.60;;;2.40;;
59336;SDS011;45115;52.002;4.686;2024-01-07T15:08:22;4.45;;;2.63;;
59336;SDS011;45115;52.002;4.686;2024-01-07T15:10:51;4.53;;;2.80;;
59336;SDS011;45115;52.002;4.686;2024-01-07T15:13:17;5.20;;;2.72;;
59336;SDS011;45115;52.002;4.686;2024-01-07T15:15:44;4.47;;;2.53;;
59336;SDS011;45115;52.002;4.686;2024-01-07T15:18:11;4.63;;;2.67;;
59336;SDS011;45115;52.002;4.686;2024-01-07T15:20:47;5.70;;;2.67;;
59336;SDS011;45115;52.002;4.686;2024-01-07T15:23:14;5.82;;;2.88;;
59336;SDS011;45115;52.002;4.686;2024-01-07T15:25:41;4.93;;;2.80;;
59336;SDS011;45115;52.002;4.686;2024-01-07T15:28:09;4.28;;;3.03;;
59336;SDS011;45115;52.002;4.686;2024-01-07T15:30:36;4.88;;;2.63;;
59336;SDS011;45115;52.002;4.686;2024-01-07T15:33:03;4.32;;;2.90;;
59336;SDS011;45115;52.002;4.686;2024-01-07T15:35:30;5.25;;;2.60;;
59336;SDS011;45115;52.002;4.686;2024-01-07T15:37:57;5.35;;;2.97;;
59336;SDS011;45115;52.002;4.686;2024-01-07T15:40:23;4.50;;;3.10;;
59336;SDS011;45115;52.002;4.686;2024-01-07T15:42:52;5.90;;;3.05;;
59336;SDS011;45115;52.002;4.686;2024-01-07T15:45:20;5.78;;;2.92;;
59336;SDS011;45115;52.002;4.686;2024-01-07T15:47:47;7.07;;;3.00;;
59336;SDS011;45115;52.002;4.686;2024-01-07T15:50:14;4.82;;;2.85;;
59336;SDS011;45115;52.002;4.686;2024-01-07T15:52:41;5.63;;;2.90;;
59336;SDS011;45115;52.002;4.686;2024-01-07T15:55:26;3.50;;;2.67;;
59336;SDS011;45115;52.002;4.686;2024-01-07T15:58:24;4.75;;;2.65;;
59336;SDS011;45115;52.002;4.686;2024-01-07T16:01:01;3.33;;;2.45;;
59336;SDS011;45115;52.002;4.686;2024-01-07T16:06:55;4.97;;;2.67;;